Map

Track Data

SID SEASON NUMBER BASIN SUBBASIN NAME ISO_TIME NATURE LAT LON WMO_WIND WMO_PRES WMO_AGENCY TRACK_TYPE DIST2LAND LANDFALL IFLAG USA_AGENCY USA_ATCF_ID USA_LAT USA_LON USA_RECORD USA_STATUS USA_WIND USA_PRES USA_SSHS USA_R34_NE USA_R34_SE USA_R34_SW USA_R34_NW USA_R50_NE USA_R50_SE USA_R50_SW USA_R50_NW USA_R64_NE USA_R64_SE USA_R64_SW USA_R64_NW USA_POCI USA_ROCI USA_RMW USA_EYE TOKYO_LAT TOKYO_LON TOKYO_GRADE TOKYO_WIND TOKYO_PRES TOKYO_R50_DIR TOKYO_R50_LONG TOKYO_R50_SHORT TOKYO_R30_DIR TOKYO_R30_LONG TOKYO_R30_SHORT TOKYO_LAND CMA_LAT CMA_LON CMA_CAT CMA_WIND CMA_PRES HKO_LAT HKO_LON HKO_CAT HKO_WIND HKO_PRES NEWDELHI_LAT NEWDELHI_LON NEWDELHI_GRADE NEWDELHI_WIND NEWDELHI_PRES NEWDELHI_CI NEWDELHI_DP NEWDELHI_POCI REUNION_LAT REUNION_LON REUNION_TYPE REUNION_WIND REUNION_PRES REUNION_TNUM REUNION_CI REUNION_RMW REUNION_R34_NE REUNION_R34_SE REUNION_R34_SW REUNION_R34_NW REUNION_R50_NE REUNION_R50_SE REUNION_R50_SW REUNION_R50_NW REUNION_R64_NE REUNION_R64_SE REUNION_R64_SW REUNION_R64_NW BOM_LAT BOM_LON BOM_TYPE BOM_WIND BOM_PRES BOM_TNUM BOM_CI BOM_RMW BOM_R34_NE BOM_R34_SE BOM_R34_SW BOM_R34_NW BOM_R50_NE BOM_R50_SE BOM_R50_SW BOM_R50_NW BOM_R64_NE BOM_R64_SE BOM_R64_SW BOM_R64_NW BOM_ROCI BOM_POCI BOM_EYE BOM_POS_METHOD BOM_PRES_METHOD NADI_LAT NADI_LON NADI_CAT NADI_WIND NADI_PRES WELLINGTON_LAT WELLINGTON_LON WELLINGTON_WIND WELLINGTON_PRES DS824_LAT DS824_LON DS824_STAGE DS824_WIND DS824_PRES TD9636_LAT TD9636_LON TD9636_STAGE TD9636_WIND TD9636_PRES TD9635_LAT TD9635_LON TD9635_WIND TD9635_PRES TD9635_ROCI NEUMANN_LAT NEUMANN_LON NEUMANN_CLASS NEUMANN_WIND NEUMANN_PRES MLC_LAT MLC_LON MLC_CLASS MLC_WIND MLC_PRES USA_GUST BOM_GUST BOM_GUST_PER REUNION_GUST REUNION_GUST_PER USA_SEAHGT USA_SEARAD_NE USA_SEARAD_SE USA_SEARAD_SW USA_SEARAD_NW STORM_SPEED STORM_DIR
1977160N16071 1977 42 NI AS NOT_NAMED 1977-06-09 00:00:00 TS 15.8000 70.6000 main 298 293 O________OO___ jtwc_io IO021977 15.8000 70.6000 -1 15.8000 70.6000 TC 15.8000 70.6000 1 9 348
1977160N16071 1977 42 NI AS NOT_NAMED 1977-06-09 03:00:00 TS 16.2620 70.5023 main 299 298 P________PP___ IO021977 16.2725 70.4976 -1 16.2725 70.4976 TC 16.2408 70.5116 1 9 348
1977160N16071 1977 42 NI AS NOT_NAMED 1977-06-09 06:00:00 TS 16.6851 70.4061 main 304 297 O________OP___ jtwc_io IO021977 16.7000 70.4000 -1 16.7000 70.4000 TC 16.6553 70.4184 1 8 347
1977160N16071 1977 42 NI AS NOT_NAMED 1977-06-09 09:00:00 TS 17.0357 70.3103 main 304 297 P________PP___ IO021977 17.0450 70.3074 -1 17.0450 70.3074 TC 17.0172 70.3160 1 6 342
1977160N16071 1977 42 NI AS NOT_NAMED 1977-06-09 12:00:00 TS 17.3000 70.2000 main 303 299 O________OO___ jtwc_io IO021977 17.3000 70.2000 -1 17.3000 70.2000 TC 17.3000 70.2000 1 5 333
1977160N16071 1977 42 NI AS NOT_NAMED 1977-06-09 15:00:00 TS 17.4782 70.0742 main 306 306 P________PP___ IO021977 17.4724 70.0799 -1 17.4724 70.0799 TC 17.4898 70.0628 1 4 317
1977160N16071 1977 42 NI AS NOT_NAMED 1977-06-09 18:00:00 TS 17.6072 69.8945 main 324 324 O________OP___ jtwc_io IO021977 17.6000 69.9000 -1 17.6000 69.9000 TC 17.6216 69.8835 1 5 302
1977160N16071 1977 42 NI AS NOT_NAMED 1977-06-09 21:00:00 TS 17.7274 69.6523 main 343 343 P________PP___ IO021977 17.7198 69.6597 -1 17.7198 69.6597 TC 17.7426 69.6375 1 6 297
1977160N16071 1977 42 NI AS NOT_NAMED 1977-06-10 00:00:00 TS 17.9000 69.3000 main 350 343 O________OO___ jtwc_io IO021977 17.9000 69.3000 -1 17.9000 69.3000 TC 17.9000 69.3000 2 10 301
1977160N16071 1977 42 NI AS NOT_NAMED 1977-06-10 03:00:00 TS 18.2202 68.7961 main 349 343 P________PP___ IO021977 18.2351 68.7878 -1 18.2351 68.7878 TC 18.1905 68.8125 2 12 303
1977160N16071 1977 42 NI AS NOT_NAMED 1977-06-10 06:00:00 TS 18.5722 68.2132 main 349 349 O________OP___ jtwc_io IO021977 18.6000 68.2000 -1 18.6000 68.2000 TC 18.5166 68.2398 2 13 300
1977160N16071 1977 42 NI AS NOT_NAMED 1977-06-10 09:00:00 TS 18.8698 67.6290 main 366 366 P________PP___ IO021977 18.8876 67.6200 -1 18.8876 67.6200 TC 18.8343 67.6469 2 12 297
1977160N16071 1977 42 NI AS NOT_NAMED 1977-06-10 12:00:00 TS 19.1000 67.1000 main 388 388 O________OO___ jtwc_io IO021977 19.1000 67.1000 -1 19.1000 67.1000 TC 19.1000 67.1000 4 9 293
1977160N16071 1977 42 NI AS NOT_NAMED 1977-06-10 15:00:00 TS 19.2335 66.7210 main 411 403 P________PP___ IO021977 19.2222 66.7197 -1 19.2222 66.7197 TC 19.2561 66.7237 4 7 288
1977160N16071 1977 42 NI AS NOT_NAMED 1977-06-10 18:00:00 TS 19.3194 66.3995 main 424 422 O________OP___ jtwc_io IO021977 19.3000 66.4000 XX 35 -5 19.3000 66.4000 TC 35 19.3581 66.3984 4 6 286
1977160N16071 1977 42 NI AS NOT_NAMED 1977-06-10 21:00:00 TS 19.4102 66.0779 main 435 435 P________PP___ IO021977 19.3997 66.0799 XX 37 -5 19.3997 66.0799 TC 37 19.4311 66.0739 4 7 285
1977160N16071 1977 42 NI AS NOT_NAMED 1977-06-11 00:00:00 TS 19.5000 65.7000 main 456 456 O________OO___ jtwc_io IO021977 19.5000 65.7000 XX 40 -5 19.5000 65.7000 TC 40 19.5000 65.7000 4 9 283
1977160N16071 1977 42 NI AS NOT_NAMED 1977-06-11 03:00:00 TS 19.6017 65.1797 main 488 488 P________PP___ IO021977 19.6001 65.1800 XX 42 -5 19.6001 65.1800 TC 42 19.6049 65.1793 4 11 281
1977160N16071 1977 42 NI AS NOT_NAMED 1977-06-11 06:00:00 TS 19.7029 64.6026 main 532 520 O________OP___ jtwc_io IO021977 19.7000 64.6000 XX 45 -5 19.7000 64.6000 TC 45 19.7087 64.6078 4 11 281
1977160N16071 1977 42 NI AS NOT_NAMED 1977-06-11 09:00:00 TS 19.8027 64.0291 main 511 462 P________PP___ IO021977 19.8000 64.0275 XX 47 -5 19.8000 64.0275 TC 47 19.8080 64.0323 4 11 281
1977160N16071 1977 42 NI AS NOT_NAMED 1977-06-11 12:00:00 TS 19.9000 63.5000 main 462 420 O________OO___ jtwc_io IO021977 19.9000 63.5000 XX 50 -5 19.9000 63.5000 TC 50 19.9000 63.5000 4 9 282
1977160N16071 1977 42 NI AS NOT_NAMED 1977-06-11 15:00:00 TS 20.0000 63.0701 main 420 379 P________PP___ IO021977 20.0073 63.0700 XX 52 -5 20.0073 63.0700 TC 52 19.9854 63.0704 4 8 284
1977160N16071 1977 42 NI AS NOT_NAMED 1977-06-11 18:00:00 TS 20.0880 62.6966 main 379 353 O________OP___ jtwc_io IO021977 20.1000 62.7000 XX 55 -5 20.1000 62.7000 TC 55 20.0640 62.6898 4 7 282
1977160N16071 1977 42 NI AS NOT_NAMED 1977-06-11 21:00:00 TS 20.1501 62.3414 main 338 311 P________PP___ IO021977 20.1574 62.3424 XX 55 -5 20.1574 62.3424 TC 55 20.1356 62.3392 4 7 280
1977160N16071 1977 42 NI AS NOT_NAMED 1977-06-12 00:00:00 TS 20.2000 62.0000 main 311 278 O________OO___ jtwc_io IO021977 20.2000 62.0000 XX 55 -5 20.2000 62.0000 TC 55 20.2000 62.0000 4 7 279
1977160N16071 1977 42 NI AS NOT_NAMED 1977-06-12 03:00:00 TS 20.2536 61.6449 main 268 241 P________PP___ IO021977 20.2499 61.6500 XX 57 -5 20.2499 61.6500 TC 57 20.2611 61.6346 4 7 279
1977160N16071 1977 42 NI AS NOT_NAMED 1977-06-12 06:00:00 TS 20.3049 61.2925 main 241 208 O________OP___ jtwc_io IO021977 20.3000 61.3000 XX 60 -5 20.3000 61.3000 TC 60 20.3148 61.2774 4 7 279
1977160N16071 1977 42 NI AS NOT_NAMED 1977-06-12 09:00:00 TS 20.3537 60.9388 main 200 175 P________PP___ IO021977 20.3500 60.9425 XX 57 -5 20.3500 60.9425 TC 57 20.3611 60.9315 4 7 278
1977160N16071 1977 42 NI AS NOT_NAMED 1977-06-12 12:00:00 TS 20.4000 60.6000 main 175 152 O________OO___ jtwc_io IO021977 20.4000 60.6000 XX 55 -5 20.4000 60.6000 TC 55 20.4000 60.6000 4 6 279
1977160N16071 1977 42 NI AS NOT_NAMED 1977-06-12 15:00:00 TS 20.4489 60.2899 main 152 124 P________PP___ IO021977 20.4574 60.2925 XX 55 -5 20.4574 60.2925 TC 55 20.4317 60.2847 4 6 279
1977160N16071 1977 42 NI AS NOT_NAMED 1977-06-12 18:00:00 TS 20.4859 59.9942 main 124 106 O________OP___ jtwc_io IO021977 20.5000 60.0000 XX 55 -5 20.5000 60.0000 TC 55 20.4578 59.9825 4 6 275
1977160N16071 1977 42 NI AS NOT_NAMED 1977-06-12 21:00:00 TS 20.5001 59.6980 main 106 76 P________PP___ IO021977 20.5101 59.7025 XX 52 -5 20.5101 59.7025 TC 52 20.4800 59.6891 4 6 271
1977160N16071 1977 42 NI AS NOT_NAMED 1977-06-13 00:00:00 TS 20.5000 59.4000 main 76 O________OO___ jtwc_io IO021977 20.5000 59.4000 XX 50 -5 20.5000 59.4000 TC 50 20.5000 59.4000 4 6 270

About IBTrACS Database

This database is a web-friendly format of International Best Track Archive for Climate Stewardship (IBTrACS), a global best track data archive curated by NOAA dating back to 1842.

Updated: 2021-10-25